Aviation Digital Data Service (ADDS)

Output produced by METARs form (0031 UTC 28 March 2017)
found at http://aviationweather.gov/adds/metars/
 
KSBY 272328Z 2800/2824 20011KT P6SM SCT060 BKN250 
     FM280300 18007KT P6SM BKN100 
     FM280800 20006KT P6SM VCSH BKN050 
     FM281100 21005KT 3SM BR BKN010 BKN050 
     FM281400 21008KT P6SM SCT035 BKN050 
     FM281900 20009KT P6SM BKN050